Airfield :
LOGIN :

Register | Disclaimer

   EN    FR    IT 

 










Legend :    VFR   Marginal VFR   IFR   Intensive IFR   Very Intensive IFR
Visi :
Ceiling :
>= 8 km
>= 3000ft
5 to 8 km
1000 to 3000 ft
1500m to 5 km
500 to 1000 ft
800 to 1500m
200 to 500 ft
< 800m
< 200 ft
Symbols :   Thunderstorms  Fog  Heavy snow  Heavy precipitations  Wind > 20 kt
SIGMETs :     Misc.  Thunderstorms  Icing  Turbulence  Mountain Waves  Volcanic Ashes






- Airport Elevation : 138 ft
- IATA code : BIO


LEBB - Bilbao

CURRENT METAR :
  • 202330Z AUTO 05002KT 9999 BKN023 18/15 Q1023

EXPIRED METARs :
  • 202300Z AUTO VRB02KT 9999 FEW016 BKN025 18/15 Q1023
  • 202230Z 05003KT 320V080 9999 BKN018 BKN030 18/16 Q1024 NOSIG
  • 202200Z VRB02KT 9999 BKN018 BKN030 18/16 Q1024 NOSIG
  • 202130Z 00000KT 9999 BKN018 BKN030 18/16 Q1024 NOSIG
  • 202100Z 00000KT 9999 OVC018 18/16 Q1024 NOSIG

TAF TAF LEBB
Valid from the 21 at 00:00 until the 22 at 00:00 UTC


202300Z 2100/2124 VRB03KT 9999 SCT020 TX36/2113Z TN13/2106Z
TEMPO 2109/2114 14008KT
BECMG 2114/2117 30008KT
PROB30
TEMPO 2118/2123 28015G25KT TSRA FEW050CB



MET'MAP, your aeronautical weather chart ! - Copyright ORBIFLY December 2007 - Disclaimer

ORBIFLY MET'MAP TEAM :

Programming & Development : Alexandra Zaïnal
Original concept : Baudouin d'Aumeries
Technical & hardware support : Manuel Goepfert
Assistance : Marc-Olivier Méhu

Contact : metmap@orbifly.com




SOURCES & CREDITS :

   NOAA